Time;durP1;ratioP1;P1;durP2;ratioP2;P2;SDS_P1;SDS_P2;PMS_P1;PMS_P2;Temp;Humidity;BMP_temperature;BMP_pressure;BME280_temperature;BME280_humidity;BME280_pressure;Samples;Min_cycle;Max_cycle;Signal;HPM_P1;HPM_P2
2023/06/12 00:01:28;;;;;;;2.70;2.00;;;28.30;38.20;;;;;;5096271;28;20048;-79
2023/06/12 00:03:56;;;;;;;3.40;2.20;;;28.30;38.20;;;;;;5080621;28;20380;-76
2023/06/12 00:06:22;;;;;;;2.78;2.17;;;28.30;38.30;;;;;;5097820;28;20020;-76
2023/06/12 00:08:47;;;;;;;2.53;1.80;;;28.30;38.30;;;;;;5096100;28;20059;-75
2023/06/12 00:11:14;;;;;;;2.40;2.00;;;28.20;38.30;;;;;;5096190;28;20066;-77
2023/06/12 00:13:42;;;;;;;3.13;2.22;;;28.20;38.30;;;;;;5078906;28;20377;-77
2023/06/12 00:16:08;;;;;;;2.83;2.15;;;28.10;38.30;;;;;;5078375;28;20120;-78
2023/06/12 00:18:35;;;;;;;2.22;2.00;;;28.10;38.40;;;;;;5094991;28;20127;-77
2023/06/12 00:21:02;;;;;;;2.63;2.20;;;28.10;38.40;;;;;;5094885;28;20028;-76
2023/06/12 00:23:29;;;;;;;2.97;2.10;;;28.10;38.50;;;;;;5094824;28;20555;-77
2023/06/12 00:25:55;;;;;;;3.33;2.22;;;28.00;38.40;;;;;;5061445;28;20032;-76
2023/06/12 00:28:20;;;;;;;2.83;2.30;;;28.00;38.40;;;;;;5078418;28;20039;-77
2023/06/12 00:30:47;;;;;;;2.50;2.00;;;28.00;38.50;;;;;;5077872;28;20032;-78
2023/06/12 00:33:12;;;;;;;3.25;2.53;;;27.90;38.50;;;;;;5094540;28;20032;-76
2023/06/12 00:35:38;;;;;;;2.70;2.10;;;27.90;38.50;;;;;;5060957;28;20092;-77
2023/06/12 00:38:06;;;;;;;2.47;2.10;;;27.90;38.50;;;;;;5061086;28;20032;-76
2023/06/12 00:40:32;;;;;;;3.05;2.30;;;27.80;39.20;;;;;;5062286;28;20342;-77
2023/06/12 00:42:58;;;;;;;2.67;1.98;;;27.80;38.50;;;;;;5044274;28;20035;-76
2023/06/12 00:45:24;;;;;;;2.97;2.13;;;27.80;38.60;;;;;;5094019;28;20048;-77
2023/06/12 00:47:52;;;;;;;3.13;2.40;;;27.70;38.60;;;;;;5095519;28;20032;-75
2023/06/12 00:50:19;;;;;;;2.92;2.10;;;27.70;38.60;;;;;;5077396;28;20426;-76
2023/06/12 00:52:47;;;;;;;2.53;2.10;;;27.60;38.60;;;;;;5094695;28;20068;-76
2023/06/12 00:55:14;;;;;;;2.35;2.15;;;27.60;38.60;;;;;;5077640;28;20111;-77
2023/06/12 00:57:42;;;;;;;3.55;2.20;;;27.60;38.70;;;;;;5093938;28;20489;-78
2023/06/12 01:00:12;;;;;;;2.88;2.20;;;27.60;38.70;;;;;;5094241;28;20032;-76
2023/06/12 01:02:44;;;;;;;2.70;2.10;;;27.50;38.70;;;;;;5077660;28;20502;-76
2023/06/12 01:05:13;;;;;;;2.35;2.00;;;27.50;38.70;;;;;;5095555;28;20031;-80
2023/06/12 01:07:47;;;;;;;3.78;2.25;;;27.40;38.70;;;;;;5094160;28;20063;-78
2023/06/12 01:10:40;;;;;;;2.97;2.27;;;27.40;38.80;;;;;;5079543;28;20032;-77
2023/06/12 01:13:09;;;;;;;3.55;2.10;;;27.40;39.50;;;;;;5095270;28;20408;-76
2023/06/12 01:15:36;;;;;;;2.85;1.92;;;27.30;38.80;;;;;;5093871;28;20111;-77
2023/06/12 01:18:03;;;;;;;2.47;2.03;;;27.30;38.90;;;;;;5060492;28;20028;-81
2023/06/12 01:20:30;;;;;;;3.25;2.17;;;27.30;38.90;;;;;;5077486;28;20028;-77
2023/06/12 01:23:29;;;;;;;2.58;2.08;;;27.20;38.90;;;;;;5060241;28;20188;-78
2023/06/12 01:26:27;;;;;;;3.05;2.25;;;27.20;38.90;;;;;;5093860;28;20460;-77
2023/06/12 01:28:56;;;;;;;2.72;2.00;;;27.20;39.00;;;;;;5094239;28;20036;-76
2023/06/12 01:31:59;;;;;;;2.67;1.85;;;27.10;38.90;;;;;;5076709;28;20105;-76
2023/06/12 01:34:54;;;;;;;2.85;1.90;;;27.10;39.00;;;;;;5093359;28;20035;-76
2023/06/12 01:37:50;;;;;;;3.47;2.03;;;27.00;39.00;;;;;;5089194;28;20383;-75
2023/06/12 01:40:25;;;;;;;3.38;2.30;;;27.00;39.10;;;;;;5093765;28;20040;-79
2023/06/12 01:42:53;;;;;;;2.50;1.90;;;27.00;39.10;;;;;;5093433;28;20032;-76
2023/06/12 01:45:18;;;;;;;2.58;2.10;;;26.90;39.10;;;;;;5093212;28;20056;-77
2023/06/12 01:47:44;;;;;;;2.80;2.10;;;26.90;39.10;;;;;;5094689;28;20036;-76
2023/06/12 01:50:12;;;;;;;3.28;2.22;;;26.90;39.10;;;;;;5076291;28;20380;-75
2023/06/12 01:52:40;;;;;;;3.10;2.15;;;26.80;39.00;;;;;;5076714;28;20081;-76
2023/06/12 01:55:06;;;;;;;3.15;2.33;;;26.80;39.10;;;;;;5076139;28;20036;-76
2023/06/12 01:57:32;;;;;;;2.40;1.95;;;26.80;39.10;;;;;;5043609;28;20034;-80
2023/06/12 02:00:00;;;;;;;2.88;2.38;;;26.80;39.10;;;;;;5076226;28;20032;-77
2023/06/12 02:02:26;;;;;;;2.85;2.10;;;26.70;39.10;;;;;;5075987;28;20452;-77
2023/06/12 02:04:52;;;;;;;3.08;2.20;;;26.70;39.10;;;;;;5076018;28;20039;-77
2023/06/12 02:07:19;;;;;;;3.00;2.28;;;26.70;39.20;;;;;;5076634;28;20453;-80
2023/06/12 02:09:46;;;;;;;3.53;2.30;;;26.60;39.20;;;;;;5076843;28;20032;-77
2023/06/12 02:12:13;;;;;;;3.00;2.25;;;26.60;39.20;;;;;;5094392;28;20055;-76
2023/06/12 02:14:41;;;;;;;5.18;2.40;;;26.50;39.20;;;;;;5077809;28;20081;-77
2023/06/12 02:17:07;;;;;;;3.15;2.20;;;26.50;39.20;;;;;;5078555;28;20039;-80
2023/06/12 02:19:33;;;;;;;2.95;2.25;;;26.50;39.30;;;;;;5060909;28;20036;-77
2023/06/12 02:21:59;;;;;;;2.83;2.08;;;26.40;39.20;;;;;;5092819;28;20047;-77
2023/06/12 02:24:28;;;;;;;3.15;2.30;;;26.40;39.20;;;;;;5076601;28;20031;-77
2023/06/12 02:26:54;;;;;;;2.72;2.08;;;26.40;39.30;;;;;;5092363;28;20140;-78
2023/06/12 02:29:20;;;;;;;2.78;2.15;;;26.40;39.30;;;;;;5092409;28;20028;-77
2023/06/12 02:31:50;;;;;;;3.00;2.20;;;26.30;39.30;;;;;;5076426;28;20032;-77
2023/06/12 02:34:16;;;;;;;2.83;2.00;;;26.30;39.30;;;;;;5058808;28;20034;-77
2023/06/12 02:36:43;;;;;;;3.05;2.45;;;26.30;39.40;;;;;;5075579;28;20039;-76
2023/06/12 02:39:14;;;;;;;3.13;2.28;;;26.20;39.40;;;;;;5092521;28;20115;-77
2023/06/12 02:41:47;;;;;;;2.80;2.05;;;26.20;39.40;;;;;;5075585;28;20028;-77
2023/06/12 02:44:14;;;;;;;2.17;1.90;;;26.20;39.50;;;;;;5092021;28;20389;-79
2023/06/12 02:46:57;;;;;;;3.17;2.10;;;26.20;39.50;;;;;;5091772;28;20043;-77
2023/06/12 02:49:28;;;;;;;2.58;2.00;;;26.10;39.50;;;;;;5093003;28;20032;-76
2023/06/12 02:51:54;;;;;;;2.75;2.17;;;26.10;39.50;;;;;;5075783;28;20032;-76
2023/06/12 02:54:22;;;;;;;2.33;1.90;;;26.00;39.50;;;;;;5075438;28;20430;-75
2023/06/12 02:56:49;;;;;;;2.35;2.00;;;26.00;39.50;;;;;;5075444;28;20579;-77
2023/06/12 02:59:17;;;;;;;2.60;1.95;;;26.00;39.60;;;;;;5075927;28;20473;-75
2023/06/12 03:01:44;;;;;;;2.72;2.05;;;26.00;39.60;;;;;;5058847;28;20052;-76
2023/06/12 03:04:22;;;;;;;3.58;2.55;;;25.90;39.60;;;;;;5092488;28;20027;-79
2023/06/12 03:06:53;;;;;;;2.95;2.22;;;25.90;39.60;;;;;;5092911;28;20051;-77
2023/06/12 03:09:23;;;;;;;2.65;2.20;;;25.90;39.60;;;;;;5076027;28;20036;-76
2023/06/12 03:11:52;;;;;;;2.47;2.00;;;25.80;39.60;;;;;;5059375;28;20036;-76
2023/06/12 03:14:21;;;;;;;2.55;2.08;;;25.80;39.60;;;;;;5092776;28;20106;-78
2023/06/12 03:16:48;;;;;;;2.60;2.20;;;25.80;39.70;;;;;;5076499;28;20028;-77
2023/06/12 03:19:14;;;;;;;3.05;2.20;;;25.70;39.60;;;;;;5091866;28;20028;-77
2023/06/12 03:21:40;;;;;;;2.45;1.92;;;25.70;39.70;;;;;;5074812;28;20123;-76
2023/06/12 03:24:06;;;;;;;3.00;2.22;;;25.60;39.70;;;;;;5075101;28;20029;-76
2023/06/12 03:26:33;;;;;;;3.85;2.15;;;25.60;39.70;;;;;;5075017;28;20036;-76
2023/06/12 03:29:03;;;;;;;3.10;2.17;;;25.60;39.70;;;;;;5075361;28;20040;-77
2023/06/12 03:31:31;;;;;;;3.58;2.47;;;25.60;39.80;;;;;;5075376;28;20469;-78
2023/06/12 03:33:58;;;;;;;2.95;2.10;;;25.50;39.80;;;;;;5095291;28;20499;-77
2023/06/12 03:36:25;;;;;;;3.17;2.28;;;25.50;39.80;;;;;;5046217;28;20032;-77
2023/06/12 03:38:52;;;;;;;3.30;2.30;;;25.50;39.90;;;;;;5079369;28;20036;-78
2023/06/12 03:41:22;;;;;;;3.38;2.17;;;25.40;39.80;;;;;;5062126;28;20031;-77
2023/06/12 03:43:48;;;;;;;2.92;2.20;;;25.50;39.90;;;;;;5078634;28;20032;-77
2023/06/12 03:46:14;;;;;;;2.33;1.95;;;25.40;39.90;;;;;;5061906;28;20051;-78
2023/06/12 03:48:40;;;;;;;3.20;2.13;;;25.40;39.90;;;;;;5078831;28;20043;-78
2023/06/12 03:51:06;;;;;;;2.78;2.25;;;25.40;39.90;;;;;;5095473;28;20028;-77
2023/06/12 03:53:32;;;;;;;3.55;2.28;;;25.30;39.90;;;;;;5080085;28;20028;-78
2023/06/12 03:55:58;;;;;;;3.08;2.25;;;25.30;39.90;;;;;;5095417;28;20032;-79
2023/06/12 03:58:25;;;;;;;3.13;2.28;;;25.30;40.00;;;;;;5095300;28;20081;-77
2023/06/12 04:00:52;;;;;;;2.90;2.30;;;25.30;40.00;;;;;;5078694;28;20380;-76
2023/06/12 04:03:20;;;;;;;3.47;2.47;;;25.20;40.00;;;;;;5078367;28;20032;-76
2023/06/12 04:05:50;;;;;;;2.83;2.28;;;25.20;40.00;;;;;;5078823;28;20047;-77
2023/06/12 04:08:16;;;;;;;3.40;2.25;;;25.20;40.10;;;;;;5062301;28;20140;-78
2023/06/12 04:10:43;;;;;;;2.92;2.30;;;25.10;40.10;;;;;;5078148;28;20528;-77
2023/06/12 04:13:10;;;;;;;3.38;2.38;;;25.20;40.20;;;;;;5096315;28;20063;-75
2023/06/12 04:15:36;;;;;;;3.17;2.25;;;25.10;40.10;;;;;;5078299;28;20035;-75
2023/06/12 04:18:04;;;;;;;3.05;2.53;;;25.10;40.10;;;;;;5078594;28;20042;-77
2023/06/12 04:20:32;;;;;;;3.60;2.45;;;25.10;40.20;;;;;;5097048;28;20046;-77
2023/06/12 04:22:58;;;;;;;3.75;2.40;;;25.00;40.20;;;;;;5080132;28;20350;-77
2023/06/12 04:25:26;;;;;;;3.25;2.17;;;25.00;40.20;;;;;;5095241;28;20032;-76
2023/06/12 04:27:52;;;;;;;3.40;2.33;;;25.00;40.30;;;;;;5095113;28;20160;-77
2023/06/12 04:30:21;;;;;;;2.97;2.22;;;25.00;40.30;;;;;;5061338;28;20038;-76
2023/06/12 04:32:48;;;;;;;2.83;2.13;;;24.90;40.30;;;;;;5077891;28;20034;-76
2023/06/12 04:35:19;;;;;;;3.35;2.28;;;24.80;40.30;;;;;;5096170;28;20028;-76
2023/06/12 04:37:48;;;;;;;3.55;2.33;;;24.90;40.40;;;;;;5078040;28;20020;-78
2023/06/12 04:40:15;;;;;;;3.17;2.20;;;24.80;40.40;;;;;;5077962;28;20127;-76
2023/06/12 04:42:43;;;;;;;2.92;2.33;;;24.80;40.40;;;;;;5077636;28;20040;-76
2023/06/12 04:45:14;;;;;;;3.05;2.22;;;24.80;40.50;;;;;;5093030;28;20036;-77
2023/06/12 04:47:41;;;;;;;2.83;2.22;;;24.80;40.60;;;;;;5077848;28;20080;-77
2023/06/12 04:50:09;;;;;;;3.63;2.22;;;24.80;40.60;;;;;;5061051;28;20457;-78
2023/06/12 04:52:36;;;;;;;3.35;2.35;;;24.80;40.60;;;;;;5077808;28;20381;-78
2023/06/12 04:55:03;;;;;;;2.28;2.05;;;24.70;40.60;;;;;;5078198;28;20028;-77
2023/06/12 04:57:29;;;;;;;2.85;2.17;;;24.70;40.70;;;;;;5077091;28;20131;-76
2023/06/12 04:59:56;;;;;;;3.03;2.22;;;24.70;40.70;;;;;;5077762;28;20068;-77
2023/06/12 05:02:21;;;;;;;3.63;2.47;;;24.70;40.70;;;;;;5077647;28;20441;-76
2023/06/12 05:04:47;;;;;;;3.05;2.17;;;24.70;40.70;;;;;;5095338;28;20353;-76
2023/06/12 05:07:16;;;;;;;2.67;2.25;;;24.60;40.70;;;;;;5094516;28;20174;-76
2023/06/12 05:09:45;;;;;;;3.13;2.40;;;24.60;41.40;;;;;;5079521;28;20032;-78
2023/06/12 05:12:11;;;;;;;3.28;2.35;;;24.60;40.80;;;;;;5078936;28;20036;-78
2023/06/12 05:14:39;;;;;;;3.08;2.40;;;24.60;40.80;;;;;;5094575;28;20028;-76
2023/06/12 05:17:06;;;;;;;3.20;2.28;;;24.60;40.80;;;;;;5077415;28;20024;-75
2023/06/12 05:19:31;;;;;;;3.47;2.53;;;24.60;40.90;;;;;;5060038;28;20028;-76
2023/06/12 05:21:57;;;;;;;3.22;2.22;;;24.60;40.90;;;;;;5059939;28;20076;-76
2023/06/12 05:24:23;;;;;;;2.80;2.30;;;24.60;40.90;;;;;;5093694;28;20423;-75
2023/06/12 05:26:50;;;;;;;3.03;2.20;;;24.50;40.90;;;;;;5076762;28;20032;-76
2023/06/12 05:29:17;;;;;;;4.40;2.33;;;24.60;40.90;;;;;;5076703;28;20378;-75
2023/06/12 05:31:44;;;;;;;3.15;2.22;;;24.50;40.90;;;;;;5076910;28;20530;-74
2023/06/12 05:34:10;;;;;;;2.28;1.88;;;24.50;41.00;;;;;;5076203;28;20032;-73
2023/06/12 05:36:36;;;;;;;2.97;2.30;;;24.50;41.00;;;;;;5095444;28;20020;-74
2023/06/12 05:39:04;;;;;;;2.53;2.20;;;24.50;41.00;;;;;;5093103;28;20468;-76
2023/06/12 05:41:31;;;;;;;2.92;2.10;;;24.50;41.10;;;;;;5076440;28;20115;-74
2023/06/12 05:43:58;;;;;;;3.17;2.35;;;24.50;41.10;;;;;;5076916;28;20028;-75
2023/06/12 05:46:24;;;;;;;3.10;2.30;;;24.50;41.20;;;;;;5076353;28;20116;-75
2023/06/12 05:48:51;;;;;;;3.33;2.40;;;24.50;41.20;;;;;;5059862;28;20031;-75
2023/06/12 05:51:17;;;;;;;3.03;2.42;;;24.50;41.20;;;;;;5093249;28;20038;-75
2023/06/12 05:53:47;;;;;;;3.42;2.22;;;24.50;41.20;;;;;;5093162;28;20024;-74
2023/06/12 05:56:13;;;;;;;3.58;2.60;;;24.50;41.30;;;;;;5060359;28;20030;-74
2023/06/12 05:58:42;;;;;;;2.88;2.20;;;24.50;41.30;;;;;;5076401;28;20032;-73
2023/06/12 06:01:11;;;;;;;3.70;2.40;;;24.40;41.30;;;;;;5076448;28;20060;-75
2023/06/12 06:03:53;;;;;;;2.95;2.03;;;24.40;41.30;;;;;;5093022;28;20047;-75
2023/06/12 06:06:19;;;;;;;3.20;2.53;;;24.40;41.30;;;;;;5076189;28;20034;-75
2023/06/12 06:08:45;;;;;;;3.28;2.38;;;24.40;41.40;;;;;;5092874;28;20123;-75
2023/06/12 06:11:12;;;;;;;2.78;2.17;;;24.40;41.30;;;;;;5092914;28;20081;-76
2023/06/12 06:13:38;;;;;;;3.10;2.38;;;24.40;41.40;;;;;;5075931;28;20032;-74
2023/06/12 06:16:04;;;;;;;3.00;2.42;;;24.40;41.40;;;;;;5075883;28;20101;-77
2023/06/12 06:18:30;;;;;;;3.17;2.38;;;24.40;41.40;;;;;;5075439;28;20074;-74
2023/06/12 06:20:56;;;;;;;2.70;2.10;;;24.40;41.50;;;;;;5059473;28;20036;-74
2023/06/12 06:23:22;;;;;;;2.95;2.20;;;24.40;41.50;;;;;;5059372;28;20538;-74
2023/06/12 06:25:48;;;;;;;3.75;2.50;;;24.50;41.50;;;;;;5042511;28;20024;-75
2023/06/12 06:28:15;;;;;;;3.67;2.20;;;24.40;41.50;;;;;;5075895;28;20042;-75
2023/06/12 06:30:40;;;;;;;3.42;2.40;;;24.50;41.50;;;;;;5092697;28;20503;-74
2023/06/12 06:33:06;;;;;;;3.33;2.30;;;24.50;41.50;;;;;;5092509;28;20036;-74
2023/06/12 06:35:32;;;;;;;2.80;2.15;;;24.50;41.60;;;;;;5092386;28;20480;-75
2023/06/12 06:37:58;;;;;;;2.63;2.05;;;24.40;41.50;;;;;;5075712;28;20457;-75
2023/06/12 06:40:25;;;;;;;3.35;2.30;;;24.50;41.60;;;;;;5092318;28;20039;-75
2023/06/12 06:42:52;;;;;;;3.05;2.35;;;24.40;42.30;;;;;;5075547;28;20032;-76
2023/06/12 06:45:22;;;;;;;3.92;2.45;;;24.50;41.70;;;;;;5060300;28;20493;-74
2023/06/12 06:47:50;;;;;;;3.20;2.30;;;24.50;41.70;;;;;;5075800;28;20123;-74
2023/06/12 06:50:17;;;;;;;3.08;2.40;;;24.50;41.80;;;;;;5059406;28;20028;-73
2023/06/12 06:52:44;;;;;;;3.55;2.70;;;24.50;41.80;;;;;;5093260;28;20059;-73
2023/06/12 06:55:12;;;;;;;3.70;2.60;;;24.50;41.80;;;;;;5075629;28;20028;-74
2023/06/12 06:57:38;;;;;;;3.53;2.53;;;24.50;41.80;;;;;;5092008;28;20426;-75
2023/06/12 07:00:06;;;;;;;3.47;2.58;;;24.50;41.80;;;;;;5075279;28;20040;-73
2023/06/12 07:02:32;;;;;;;3.47;2.50;;;24.50;42.50;;;;;;5075311;28;20048;-73
2023/06/12 07:04:59;;;;;;;2.83;2.30;;;24.60;41.90;;;;;;5092760;28;20032;-73
2023/06/12 07:07:25;;;;;;;3.65;2.53;;;24.60;41.90;;;;;;5092126;28;20460;-73
2023/06/12 07:09:51;;;;;;;3.72;2.70;;;24.60;41.90;;;;;;5058546;28;20082;-73
2023/06/12 07:12:17;;;;;;;3.63;2.63;;;24.60;41.90;;;;;;5058401;28;20077;-73
2023/06/12 07:14:43;;;;;;;2.88;2.33;;;24.60;41.90;;;;;;5075438;28;20027;-73
2023/06/12 07:17:10;;;;;;;3.80;2.65;;;24.60;42.00;;;;;;5075950;28;20457;-73
2023/06/12 07:19:35;;;;;;;4.70;2.90;;;24.60;41.90;;;;;;5075096;28;20194;-73
2023/06/12 07:22:02;;;;;;;4.07;2.45;;;24.60;42.00;;;;;;5074979;28;20036;-74
2023/06/12 07:24:27;;;;;;;3.22;2.35;;;24.70;41.90;;;;;;5075003;28;20029;-73
2023/06/12 07:26:53;;;;;;;3.78;2.40;;;24.70;42.50;;;;;;5058439;28;20036;-73
2023/06/12 07:29:20;;;;;;;4.00;2.67;;;24.70;41.90;;;;;;5058668;28;20035;-73
2023/06/12 07:31:47;;;;;;;2.40;2.15;;;24.80;41.90;;;;;;5058317;28;20172;-73
2023/06/12 07:34:13;;;;;;;3.55;2.38;;;24.80;41.80;;;;;;5074909;28;20374;-73
2023/06/12 07:36:40;;;;;;;3.90;2.85;;;24.80;41.70;;;;;;5059034;28;20036;-76
2023/06/12 07:39:06;;;;;;;3.55;2.40;;;24.90;41.70;;;;;;5074644;28;20485;-75
2023/06/12 07:41:32;;;;;;;3.28;2.40;;;24.90;41.60;;;;;;5057999;28;20036;-78
2023/06/12 07:43:58;;;;;;;3.28;2.42;;;25.00;41.70;;;;;;5074808;28;20036;-75
2023/06/12 07:46:25;;;;;;;4.30;2.85;;;25.00;41.60;;;;;;5074382;28;20447;-75
2023/06/12 07:48:51;;;;;;;3.20;2.40;;;25.10;41.60;;;;;;5074386;28;20039;-75
2023/06/12 07:51:17;;;;;;;3.97;2.75;;;25.10;41.50;;;;;;5057971;28;20032;-76
2023/06/12 07:53:43;;;;;;;3.40;2.58;;;25.20;41.60;;;;;;5092282;28;20122;-75
2023/06/12 07:56:16;;;;;;;3.47;2.53;;;25.30;41.60;;;;;;5091836;28;20024;-75
2023/06/12 07:58:42;;;;;;;3.53;2.45;;;25.30;41.50;;;;;;5058603;28;20414;-76
2023/06/12 08:01:11;;;;;;;2.92;2.47;;;25.40;41.50;;;;;;5091354;28;20036;-76
2023/06/12 08:03:39;;;;;;;4.15;2.88;;;25.50;41.50;;;;;;5074965;28;20097;-76
2023/06/12 08:06:09;;;;;;;4.43;2.83;;;25.50;41.40;;;;;;5074912;28;20132;-76
2023/06/12 08:08:45;;;;;;;3.58;2.53;;;25.60;41.50;;;;;;5075069;28;20381;-76
2023/06/12 08:11:12;;;;;;;3.78;2.70;;;25.70;41.50;;;;;;5074995;28;20488;-75
2023/06/12 08:13:40;;;;;;;4.05;3.00;;;25.70;41.40;;;;;;5074536;28;20035;-77
2023/06/12 08:16:07;;;;;;;3.95;2.60;;;25.80;41.40;;;;;;5074596;28;20035;-76
2023/06/12 08:18:33;;;;;;;3.40;2.50;;;25.90;41.50;;;;;;5092608;28;20036;-76
2023/06/12 08:20:59;;;;;;;4.30;2.70;;;25.90;41.40;;;;;;5078154;28;20032;-75
2023/06/12 08:23:25;;;;;;;4.00;2.53;;;26.00;41.50;;;;;;5077997;28;20046;-76
2023/06/12 08:25:51;;;;;;;3.05;2.30;;;26.10;41.50;;;;;;5061593;28;20032;-75
2023/06/12 08:28:17;;;;;;;3.45;2.40;;;26.20;41.50;;;;;;5078851;28;20031;-75
2023/06/12 08:30:45;;;;;;;3.88;2.75;;;26.20;41.50;;;;;;5078866;28;20051;-74
2023/06/12 08:33:15;;;;;;;3.13;2.30;;;26.30;41.50;;;;;;5078432;28;20040;-75
2023/06/12 08:35:42;;;;;;;3.40;2.42;;;26.40;41.50;;;;;;5078666;28;20093;-74
2023/06/12 08:38:09;;;;;;;3.22;2.42;;;26.50;41.60;;;;;;5062116;28;20031;-74
2023/06/12 08:40:35;;;;;;;4.35;2.70;;;26.50;41.50;;;;;;5096041;28;20067;-74
2023/06/12 08:43:01;;;;;;;3.20;2.28;;;26.60;41.60;;;;;;5078000;28;20448;-74
2023/06/12 08:45:29;;;;;;;3.60;2.55;;;26.70;41.60;;;;;;5094700;28;20457;-75
2023/06/12 08:47:56;;;;;;;3.17;2.30;;;26.80;41.70;;;;;;5095805;28;20028;-75
2023/06/12 08:50:23;;;;;;;3.17;2.63;;;26.90;41.70;;;;;;5094623;28;20116;-76
2023/06/12 08:52:51;;;;;;;3.33;2.63;;;27.00;41.70;;;;;;5094937;28;20081;-74
2023/06/12 08:55:20;;;;;;;3.67;2.55;;;27.10;41.70;;;;;;5094259;28;20085;-79
2023/06/12 08:57:47;;;;;;;3.72;2.78;;;27.10;41.70;;;;;;5094275;28;20056;-75
2023/06/12 09:00:14;;;;;;;3.72;3.00;;;27.30;41.80;;;;;;5095567;28;20062;-74
2023/06/12 09:02:46;;;;;;;3.33;2.35;;;27.40;41.80;;;;;;5094013;28;20112;-74
2023/06/12 09:05:20;;;;;;;3.92;2.60;;;27.50;41.80;;;;;;5094286;28;20020;-75
2023/06/12 09:07:46;;;;;;;3.67;2.58;;;27.50;41.70;;;;;;5077959;28;20024;-75
2023/06/12 09:10:14;;;;;;;3.30;2.53;;;27.70;41.70;;;;;;5093846;28;20096;-75
2023/06/12 09:12:43;;;;;;;4.95;2.50;;;27.70;41.70;;;;;;5094265;28;20092;-75
2023/06/12 09:15:10;;;;;;;4.10;2.80;;;27.80;41.60;;;;;;5093848;28;20101;-75
2023/06/12 09:17:37;;;;;;;3.03;2.45;;;27.90;41.60;;;;;;5094452;28;20040;-78
2023/06/12 09:20:06;;;;;;;3.70;2.70;;;28.00;41.60;;;;;;5095424;28;20040;-74
2023/06/12 09:22:33;;;;;;;2.88;2.22;;;28.10;41.60;;;;;;5077105;28;20068;-76
2023/06/12 09:25:05;;;;;;;4.28;3.20;;;28.20;41.60;;;;;;5077003;28;20039;-75
2023/06/12 09:27:40;;;;;;;3.88;2.72;;;28.30;41.60;;;;;;5094838;28;20032;-75
2023/06/12 09:30:07;;;;;;;2.88;2.47;;;28.30;41.50;;;;;;5078108;28;20032;-75
2023/06/12 09:32:33;;;;;;;2.80;2.30;;;28.40;41.40;;;;;;5094512;28;20032;-78
2023/06/12 09:35:01;;;;;;;3.28;2.58;;;28.50;41.40;;;;;;5095230;28;20032;-76
2023/06/12 09:37:27;;;;;;;3.70;2.88;;;28.60;41.40;;;;;;5044306;28;20506;-75
2023/06/12 09:40:14;;;;;;;3.30;2.60;;;28.70;41.40;;;;;;5093251;28;20032;-75
2023/06/12 09:42:45;;;;;;;3.45;2.50;;;28.80;41.40;;;;;;5076569;28;20052;-76
2023/06/12 09:45:20;;;;;;;3.63;2.78;;;28.90;41.30;;;;;;5093423;28;20044;-74
2023/06/12 09:47:49;;;;;;;3.00;2.50;;;29.00;41.30;;;;;;5093194;28;20024;-75
2023/06/12 09:50:23;;;;;;;3.35;2.78;;;29.10;41.20;;;;;;5076372;28;20052;-76
2023/06/12 09:52:50;;;;;;;3.47;2.70;;;29.20;41.30;;;;;;5093076;28;20055;-75
2023/06/12 09:55:17;;;;;;;4.68;2.95;;;29.30;41.30;;;;;;5092940;28;20047;-75
2023/06/12 09:57:49;;;;;;;3.30;2.70;;;29.30;41.30;;;;;;5094649;28;20032;-75
2023/06/12 10:00:16;;;;;;;3.33;2.47;;;29.40;41.20;;;;;;5076950;28;20089;-76
2023/06/12 10:03:04;;;;;;;3.50;2.75;;;29.50;41.20;;;;;;5076320;28;20032;-76
2023/06/12 10:05:43;;;;;;;4.50;2.80;;;29.60;41.20;;;;;;5092840;28;20055;-74
2023/06/12 10:08:09;;;;;;;3.40;2.38;;;29.70;41.20;;;;;;5092859;28;20028;-75
2023/06/12 10:10:36;;;;;;;3.13;2.45;;;29.80;41.70;;;;;;5075954;28;20036;-75
2023/06/12 10:13:03;;;;;;;3.58;2.80;;;29.90;41.00;;;;;;5092952;28;20031;-75
2023/06/12 10:15:30;;;;;;;3.25;2.50;;;30.00;41.00;;;;;;5060199;28;20350;-74
2023/06/12 10:17:57;;;;;;;3.55;2.53;;;30.00;41.00;;;;;;5094272;28;20032;-76
2023/06/12 10:20:24;;;;;;;3.00;2.58;;;30.10;40.90;;;;;;5092859;28;20360;-75
2023/06/12 10:22:52;;;;;;;3.28;2.60;;;30.20;40.80;;;;;;5092763;28;20031;-75
2023/06/12 10:25:19;;;;;;;3.08;2.42;;;30.30;40.80;;;;;;5092827;28;20032;-74
2023/06/12 10:27:45;;;;;;;4.18;2.85;;;30.40;40.70;;;;;;5092407;28;20039;-75
2023/06/12 10:30:15;;;;;;;3.13;2.42;;;30.50;40.70;;;;;;5075751;28;20088;-77
2023/06/12 10:32:42;;;;;;;4.10;2.67;;;30.60;40.70;;;;;;5093837;28;20028;-75
2023/06/12 10:35:08;;;;;;;2.88;2.13;;;30.60;40.50;;;;;;5059212;28;20103;-76
2023/06/12 10:37:42;;;;;;;3.80;2.60;;;30.70;40.40;;;;;;5092209;28;20059;-76
2023/06/12 10:40:15;;;;;;;3.38;2.58;;;30.80;40.30;;;;;;5093699;28;20020;-77
2023/06/12 10:42:51;;;;;;;3.47;2.47;;;30.90;40.20;;;;;;5092487;28;20035;-76
2023/06/12 10:45:29;;;;;;;3.03;2.55;;;31.00;40.20;;;;;;5075173;28;20047;-76
2023/06/12 10:48:06;;;;;;;4.03;2.83;;;31.00;40.00;;;;;;5092319;28;20464;-77
2023/06/12 10:50:43;;;;;;;2.92;2.33;;;31.10;40.00;;;;;;5093796;28;20043;-75
2023/06/12 10:53:14;;;;;;;3.10;2.42;;;31.20;40.00;;;;;;5075569;28;20040;-75
2023/06/12 10:55:41;;;;;;;3.58;2.70;;;31.30;40.00;;;;;;5092058;28;20032;-73
2023/06/12 10:58:14;;;;;;;3.08;2.22;;;31.30;39.80;;;;;;5092320;28;20032;-74
2023/06/12 11:00:47;;;;;;;3.20;2.55;;;31.40;39.80;;;;;;5092759;28;20054;-74
2023/06/12 11:03:14;;;;;;;3.17;2.47;;;31.50;39.80;;;;;;5093056;28;20112;-74
2023/06/12 11:05:55;;;;;;;3.20;2.50;;;31.50;39.80;;;;;;5074952;28;20024;-75
2023/06/12 11:08:23;;;;;;;3.25;2.38;;;31.50;39.80;;;;;;5092641;28;20036;-75
2023/06/12 11:10:49;;;;;;;3.33;2.20;;;31.60;39.80;;;;;;5093067;28;20040;-76
2023/06/12 11:13:15;;;;;;;2.85;2.30;;;31.60;39.80;;;;;;5091804;28;20044;-78
2023/06/12 11:15:42;;;;;;;4.40;2.70;;;31.70;39.80;;;;;;5075203;28;20054;-74
2023/06/12 11:18:09;;;;;;;3.50;2.25;;;31.70;39.80;;;;;;5092030;28;20036;-73
2023/06/12 11:20:35;;;;;;;3.40;2.58;;;31.70;39.80;;;;;;5091831;28;20028;-73
2023/06/12 11:23:02;;;;;;;3.03;2.30;;;31.70;39.80;;;;;;5092386;28;20461;-72
2023/06/12 11:25:35;;;;;;;3.63;2.80;;;31.80;40.00;;;;;;5093123;28;20039;-77
2023/06/12 11:28:03;;;;;;;3.30;2.65;;;31.80;40.20;;;;;;5091968;28;20039;-73
2023/06/12 11:30:29;;;;;;;3.28;2.67;;;31.80;40.10;;;;;;5075521;28;20028;-73
2023/06/12 11:32:54;;;;;;;3.22;2.55;;;31.80;40.00;;;;;;5092870;28;20458;-73
2023/06/12 11:35:20;;;;;;;3.47;2.53;;;31.90;40.20;;;;;;5091576;28;20028;-73
2023/06/12 11:37:46;;;;;;;4.90;2.75;;;31.90;40.30;;;;;;5093289;28;20534;-73
2023/06/12 11:40:13;;;;;;;2.95;2.40;;;31.90;40.40;;;;;;5092016;28;20503;-73
2023/06/12 11:42:43;;;;;;;3.22;2.47;;;31.90;40.40;;;;;;5092152;28;20039;-73
2023/06/12 11:45:14;;;;;;;3.58;2.78;;;31.90;40.50;;;;;;5093470;28;20126;-73
2023/06/12 11:47:45;;;;;;;2.97;2.50;;;32.00;40.50;;;;;;5092216;28;20028;-72
2023/06/12 11:50:13;;;;;;;2.83;2.35;;;32.00;40.60;;;;;;5092047;28;20016;-73
2023/06/12 11:52:40;;;;;;;4.28;2.65;;;32.00;40.60;;;;;;5075031;28;20110;-73
2023/06/12 11:55:16;;;;;;;3.00;2.58;;;32.00;40.60;;;;;;5078399;28;20039;-75
2023/06/12 11:57:50;;;;;;;2.97;2.40;;;32.00;40.60;;;;;;5097042;28;20020;-75
2023/06/12 12:00:18;;;;;;;4.15;2.90;;;32.10;40.70;;;;;;5095780;28;20040;-75
2023/06/12 12:02:55;;;;;;;4.38;2.67;;;32.10;40.70;;;;;;5078534;28;20039;-73
2023/06/12 12:05:23;;;;;;;3.08;2.35;;;32.10;40.70;;;;;;5095726;28;20094;-74
2023/06/12 12:07:59;;;;;;;3.45;2.58;;;32.10;40.90;;;;;;5078327;28;20024;-73
2023/06/12 12:10:27;;;;;;;2.70;2.17;;;32.10;40.90;;;;;;5095092;28;20024;-74
2023/06/12 12:13:00;;;;;;;3.05;2.55;;;32.10;40.90;;;;;;5096527;28;20031;-74
2023/06/12 12:15:29;;;;;;;3.10;2.50;;;32.10;40.80;;;;;;5094883;28;20035;-74
2023/06/12 12:17:56;;;;;;;3.10;2.40;;;32.10;40.90;;;;;;5094820;28;20020;-75
2023/06/12 12:20:26;;;;;;;2.83;2.38;;;32.20;41.00;;;;;;5096498;28;20039;-74
2023/06/12 12:22:55;;;;;;;2.80;2.33;;;32.20;41.10;;;;;;5095686;28;20101;-75
2023/06/12 12:25:30;;;;;;;3.70;2.70;;;32.10;41.00;;;;;;5095104;28;20020;-74
2023/06/12 12:27:59;;;;;;;4.07;2.65;;;32.10;40.90;;;;;;5095022;28;20032;-74
2023/06/12 12:30:26;;;;;;;3.15;2.40;;;32.20;41.00;;;;;;5095925;28;20105;-74
2023/06/12 12:32:54;;;;;;;3.20;2.53;;;32.20;41.00;;;;;;5095080;28;20039;-74
2023/06/12 12:35:21;;;;;;;2.90;2.45;;;32.20;41.00;;;;;;5095698;28;20024;-75
2023/06/12 12:37:48;;;;;;;3.47;2.58;;;32.20;40.90;;;;;;5061782;28;20040;-74
2023/06/12 12:40:14;;;;;;;3.03;2.40;;;32.20;40.80;;;;;;5095603;28;20035;-74
2023/06/12 12:42:45;;;;;;;3.50;2.88;;;32.20;40.80;;;;;;5096345;28;20114;-74
2023/06/12 12:45:13;;;;;;;3.10;2.47;;;32.20;40.70;;;;;;5095658;28;20059;-73
2023/06/12 12:47:40;;;;;;;2.60;2.35;;;32.20;40.70;;;;;;5094865;28;20114;-72
2023/06/12 12:50:07;;;;;;;3.03;2.50;;;32.20;40.70;;;;;;5094946;28;20483;-75
2023/06/12 12:52:33;;;;;;;3.10;2.50;;;32.20;40.70;;;;;;5096013;28;20028;-74
2023/06/12 12:54:59;;;;;;;3.45;2.50;;;32.30;40.80;;;;;;5094285;28;20074;-72